KCAR 181954Z AUTO 30023G32KT 10SM BKN060 02/M11 A2988 RMK AO2 PK WND 30036/1933 SLP129 T00221106